Time;durP1;ratioP1;P1;durP2;ratioP2;P2;SDS_P1;SDS_P2;PMS_P1;PMS_P2;Temp;Humidity;BMP_temperature;BMP_pressure;BME280_temperature;BME280_humidity;BME280_pressure;Samples;Min_cycle;Max_cycle;Signal;HPM_P1;HPM_P2
2023/01/16 00:01:41;;;;;;;12.82;5.20;;;;;;;0.19;100.00;94574.59;5116796;28;20228;-79
2023/01/16 00:04:11;;;;;;;10.18;4.32;;;;;;;0.32;100.00;94572.22;5115788;28;20213;-79
2023/01/16 00:06:38;;;;;;;11.98;5.10;;;;;;;0.38;100.00;94565.03;5129953;28;20200;-79
2023/01/16 00:09:05;;;;;;;12.10;5.95;;;;;;;0.33;100.00;94559.69;5116197;28;20286;-79
2023/01/16 00:11:33;;;;;;;13.73;5.07;;;;;;;0.36;100.00;94569.84;5121520;28;20891;-79
2023/01/16 00:14:00;;;;;;;12.10;5.72;;;;;;;0.36;100.00;94569.84;5124593;28;20672;-79
2023/01/16 00:16:28;;;;;;;8.02;4.32;;;;;;;0.38;100.00;94573.03;5121131;28;20673;-79
2023/01/16 00:18:55;;;;;;;7.03;3.63;;;;;;;0.45;100.00;94562.91;5109286;28;20543;-79
2023/01/16 00:21:25;;;;;;;12.18;4.60;;;;;;;0.42;100.00;94563.44;5111020;28;20256;-80
2023/01/16 00:23:52;;;;;;;5.85;4.32;;;;;;;0.44;100.00;94569.28;5113313;28;20239;-79
2023/01/16 00:26:19;;;;;;;13.82;5.10;;;;;;;0.30;100.00;94562.88;5119610;28;20521;-79
2023/01/16 00:28:48;;;;;;;9.32;4.13;;;;;;;0.45;100.00;94560.25;5116240;28;20261;-79
2023/01/16 00:31:14;;;;;;;9.13;4.60;;;;;;;0.34;100.00;94555.97;5118818;28;20213;-79
2023/01/16 00:33:42;;;;;;;11.18;5.45;;;;;;;0.28;100.00;94551.69;5122882;28;20695;-79
2023/01/16 00:36:09;;;;;;;49.00;21.17;;;;;;;0.20;100.00;94541.59;5109208;28;20205;-79
2023/01/16 00:38:36;;;;;;;52.88;23.85;;;;;;;0.13;100.00;94538.38;5122598;28;20227;-79
2023/01/16 00:41:03;;;;;;;53.47;22.58;;;;;;;0.18;100.00;94535.72;5120534;28;20201;-79
2023/01/16 00:43:30;;;;;;;48.50;22.45;;;;;;;0.26;100.00;94532.53;5118395;27;20664;-79
2023/01/16 00:46:00;;;;;;;11.40;5.55;;;;;;;0.27;100.00;94528.81;5122226;27;20660;-79
2023/01/16 00:48:27;;;;;;;13.90;5.30;;;;;;;0.24;100.00;94524.00;5126793;27;20223;-79
2023/01/16 00:50:54;;;;;;;9.45;3.25;;;;;;;0.24;100.00;94526.69;5126088;27;20190;-79
2023/01/16 00:53:20;;;;;;;10.80;5.15;;;;;;;0.39;100.00;94526.69;5119740;27;20291;-79
2023/01/16 00:55:47;;;;;;;8.98;3.33;;;;;;;0.45;100.00;94536.25;5120453;27;20233;-79
2023/01/16 00:58:14;;;;;;;10.10;4.13;;;;;;;0.41;100.00;94529.09;5128713;27;20261;-79
2023/01/16 01:00:41;;;;;;;8.85;5.63;;;;;;;0.33;100.00;94527.72;5120226;27;20225;-79
2023/01/16 01:03:09;;;;;;;8.73;5.03;;;;;;;0.48;100.00;94533.06;5126333;27;20205;-79
2023/01/16 01:05:37;;;;;;;8.20;4.93;;;;;;;0.50;100.00;94525.63;5112758;28;20212;-79
2023/01/16 01:08:05;;;;;;;12.85;5.65;;;;;;;0.59;100.00;94521.34;5120234;27;20283;-79
2023/01/16 01:10:32;;;;;;;17.27;6.03;;;;;;;0.54;100.00;94518.69;5133016;27;20228;-79
2023/01/16 01:12:59;;;;;;;5.43;3.38;;;;;;;0.51;100.00;94524.56;5125874;27;20283;-79
2023/01/16 01:15:26;;;;;;;9.73;4.43;;;;;;;0.49;99.81;94526.69;5126304;27;20216;-78
2023/01/16 01:17:52;;;;;;;12.98;5.07;;;;;;;0.40;100.00;94530.94;5120087;27;20197;-78
2023/01/16 01:20:21;;;;;;;9.07;4.28;;;;;;;0.40;100.00;94532.81;5119163;27;20721;-79
2023/01/16 01:22:48;;;;;;;5.82;3.75;;;;;;;0.51;100.00;94527.22;5125366;27;20197;-79
2023/01/16 01:25:14;;;;;;;11.02;4.63;;;;;;;0.53;100.00;94522.41;5113394;27;20262;-79
2023/01/16 01:27:41;;;;;;;9.02;4.25;;;;;;;0.62;100.00;94515.47;5133331;27;20642;-79
2023/01/16 01:30:09;;;;;;;14.05;5.82;;;;;;;0.69;100.00;94516.00;5118533;27;20894;-78
2023/01/16 01:32:36;;;;;;;11.05;3.25;;;;;;;0.71;100.00;94513.84;5133023;27;20262;-79
2023/01/16 01:35:05;;;;;;;13.88;3.95;;;;;;;0.43;100.00;94511.75;5118857;27;20201;-79
2023/01/16 01:37:33;;;;;;;15.45;4.72;;;;;;;0.42;100.00;94499.50;5132423;27;20261;-79
2023/01/16 01:40:00;;;;;;;4.80;3.00;;;;;;;0.50;100.00;94503.50;5118860;27;20976;-79
2023/01/16 01:42:51;;;;;;;4.32;2.92;;;;;;;0.53;100.00;94506.44;5123866;27;20610;-79
2023/01/16 01:45:22;;;;;;;6.30;3.15;;;;;;;0.53;100.00;94490.44;5125961;27;20206;-80
2023/01/16 01:47:55;;;;;;;7.85;3.78;;;;;;;0.48;100.00;94482.44;5110795;28;20200;-79
2023/01/16 01:50:37;;;;;;;11.45;5.18;;;;;;;0.34;100.00;94476.06;5120476;27;20257;-79
2023/01/16 01:53:12;;;;;;;9.48;2.95;;;;;;;0.26;100.00;94479.28;5132598;27;20217;-79
2023/01/16 01:55:41;;;;;;;8.10;3.45;;;;;;;-0.03;100.00;94487.78;5120180;27;20194;-79
2023/01/16 01:58:08;;;;;;;7.63;4.03;;;;;;;-0.07;100.00;94492.03;5120362;27;20645;-80
2023/01/16 02:00:35;;;;;;;9.65;3.10;;;;;;;0.06;100.00;94490.69;5132578;27;20224;-79
2023/01/16 02:03:09;;;;;;;20.42;3.47;;;;;;;0.02;100.00;94488.81;5126842;27;20212;-78
2023/01/16 02:05:40;;;;;;;7.53;3.00;;;;;;;0.08;100.00;94477.13;5111544;28;20239;-78
2023/01/16 02:08:08;;;;;;;6.55;4.18;;;;;;;0.04;100.00;94470.72;5117741;27;20275;-80
2023/01/16 02:10:40;;;;;;;5.57;4.07;;;;;;;0.12;100.00;94478.22;5118519;27;20251;-80
2023/01/16 02:13:08;;;;;;;11.82;4.68;;;;;;;0.21;100.00;94481.91;5119680;27;20212;-79
2023/01/16 02:15:36;;;;;;;8.13;2.78;;;;;;;0.27;100.00;94480.88;5118897;27;20286;-80
2023/01/16 02:20:58;;;;;;;5.85;3.17;;;;;;;0.19;100.00;94470.72;5118097;27;20236;-80
2023/01/16 02:24:21;;;;;;;10.57;3.47;;;;;;;0.24;100.00;94476.06;5132282;27;20196;-79
2023/01/16 02:27:29;;;;;;;2.92;2.22;;;;;;;0.00;100.00;94471.25;5125637;27;20211;-79
2023/01/16 02:30:14;;;;;;;4.95;2.70;;;;;;;0.08;100.00;94453.16;5041054;28;20282;-79
2023/01/16 02:32:56;;;;;;;4.15;1.55;;;;;;;0.09;100.00;94457.44;5111891;27;20232;-79
2023/01/16 02:35:48;;;;;;;32.08;13.68;;;;;;;0.00;100.00;94449.94;5121988;27;20186;-81
2023/01/16 02:38:22;;;;;;;7.50;2.58;;;;;;;-0.04;100.00;94448.91;5121076;27;20213;-79
2023/01/16 02:41:01;;;;;;;8.25;3.60;;;;;;;-0.06;100.00;94455.56;5120311;27;20280;-79
2023/01/16 02:43:35;;;;;;;6.95;3.67;;;;;;;-0.06;100.00;94451.03;5118030;27;20265;-78
2023/01/16 02:46:10;;;;;;;13.77;4.22;;;;;;;-0.01;100.00;94451.03;5122306;27;20194;-78
2023/01/16 02:48:46;;;;;;;5.20;2.85;;;;;;;0.09;100.00;94446.78;5118682;27;20177;-79
2023/01/16 02:51:20;;;;;;;8.10;3.25;;;;;;;0.11;100.00;94455.31;5126516;27;20197;-79
2023/01/16 02:53:58;;;;;;;6.47;3.05;;;;;;;0.28;100.00;94445.16;5131772;27;20213;-79
2023/01/16 02:56:31;;;;;;;16.42;4.10;;;;;;;0.23;100.00;94437.19;5117641;27;20242;-79
2023/01/16 02:58:59;;;;;;;7.22;3.97;;;;;;;0.08;100.00;94429.19;5123319;27;20224;-79
2023/01/16 03:01:26;;;;;;;7.15;3.00;;;;;;;-0.01;100.00;94431.63;5117776;27;20197;-79
2023/01/16 03:04:07;;;;;;;5.85;3.00;;;;;;;-0.05;100.00;94441.97;5118563;27;20205;-79
2023/01/16 03:06:45;;;;;;;3.75;2.22;;;;;;;0.04;100.00;94422.81;5118351;27;20644;-79
2023/01/16 03:09:32;;;;;;;14.88;4.53;;;;;;;0.07;100.00;94427.59;5114216;27;20641;-79
2023/01/16 03:12:14;;;;;;;7.25;2.83;;;;;;;0.10;100.00;94432.41;5110491;28;20189;-79
2023/01/16 03:14:51;;;;;;;12.73;3.65;;;;;;;0.09;100.00;94433.47;5110744;28;20197;-79
2023/01/16 03:17:33;;;;;;;6.47;2.53;;;;;;;0.21;100.00;94423.34;5124368;27;20708;-78
2023/01/16 03:20:16;;;;;;;4.95;2.63;;;;;;;0.39;100.00;94414.78;5122545;27;20667;-80
2023/01/16 03:22:53;;;;;;;4.13;2.42;;;;;;;0.45;100.00;94411.03;5118174;27;20200;-79
2023/01/16 03:25:34;;;;;;;5.25;3.63;;;;;;;0.43;100.00;94405.19;5117094;27;20697;-79
2023/01/16 03:28:09;;;;;;;10.07;3.63;;;;;;;0.54;100.00;94396.13;5130589;27;20192;-80
2023/01/16 03:30:47;;;;;;;19.08;5.15;;;;;;;0.59;100.00;94396.09;5117384;27;20217;-80
2023/01/16 03:33:23;;;;;;;8.43;3.17;;;;;;;0.44;100.00;94390.78;5117113;27;20217;-79
2023/01/16 03:35:57;;;;;;;17.52;3.60;;;;;;;0.55;100.00;94400.34;5122504;27;20193;-79
2023/01/16 03:38:26;;;;;;;7.30;3.70;;;;;;;0.62;100.00;94392.88;5113244;27;20623;-79
2023/01/16 03:40:55;;;;;;;19.73;3.65;;;;;;;0.69;100.00;94387.25;5130925;27;20197;-79
2023/01/16 03:43:27;;;;;;;9.48;4.22;;;;;;;0.73;100.00;94372.31;5116995;27;20616;-79
2023/01/16 03:45:59;;;;;;;6.95;3.15;;;;;;;0.62;100.00;94370.75;5118993;27;20186;-79
2023/01/16 03:48:32;;;;;;;6.80;3.35;;;;;;;0.74;100.00;94368.59;5123930;28;20194;-79
2023/01/16 03:51:05;;;;;;;9.90;4.32;;;;;;;0.54;100.00;94360.69;5123952;28;20192;-79
2023/01/16 03:53:39;;;;;;;14.07;4.50;;;;;;;0.67;100.00;94363.56;5130793;28;20229;-79
2023/01/16 03:56:14;;;;;;;10.80;4.28;;;;;;;0.75;100.00;94364.06;5116917;28;20178;-79
2023/01/16 03:58:44;;;;;;;12.93;3.58;;;;;;;0.65;99.74;94355.03;5111615;28;20642;-79
2023/01/16 04:01:21;;;;;;;7.72;3.80;;;;;;;0.64;99.73;94353.44;5123433;28;20190;-79
2023/01/16 04:03:58;;;;;;;9.40;6.28;;;;;;;0.73;99.71;94353.66;5121049;28;20196;-78
2023/01/16 04:06:33;;;;;;;5.95;2.42;;;;;;;0.63;99.56;94356.38;5125608;28;20200;-79
2023/01/16 04:09:04;;;;;;;10.40;3.53;;;;;;;0.47;100.00;94363.63;5120068;28;20181;-79
2023/01/16 04:11:34;;;;;;;5.90;3.25;;;;;;;0.46;100.00;94356.69;5119409;28;20648;-79
2023/01/16 04:14:04;;;;;;;22.05;4.97;;;;;;;0.62;100.00;94355.56;5119836;28;20216;-79
2023/01/16 04:16:33;;;;;;;13.10;4.22;;;;;;;0.71;100.00;94355.81;5119360;28;20193;-79
2023/01/16 04:19:02;;;;;;;5.95;3.22;;;;;;;0.65;100.00;94365.69;5122693;27;20185;-79
2023/01/16 04:21:31;;;;;;;7.63;4.57;;;;;;;0.85;100.00;94358.69;5120457;27;20229;-79
2023/01/16 04:24:01;;;;;;;8.07;3.78;;;;;;;0.84;100.00;94346.41;5124544;27;20193;-79
2023/01/16 04:26:28;;;;;;;3.03;2.55;;;;;;;0.74;100.00;94351.78;5124411;27;20197;-79
2023/01/16 04:28:55;;;;;;;7.82;3.28;;;;;;;0.56;100.00;94351.31;5125243;27;20205;-79
2023/01/16 04:31:23;;;;;;;5.93;2.88;;;;;;;0.81;100.00;94354.97;5125654;27;20273;-79
2023/01/16 04:33:50;;;;;;;16.15;5.82;;;;;;;0.78;100.00;94352.84;5125860;27;20308;-79
2023/01/16 04:36:17;;;;;;;12.38;3.97;;;;;;;0.62;100.00;94350.25;5118043;27;20190;-79
2023/01/16 04:38:45;;;;;;;14.70;5.03;;;;;;;0.78;100.00;94344.84;5121708;27;20194;-79
2023/01/16 04:41:12;;;;;;;9.40;3.60;;;;;;;0.72;100.00;94333.41;5123298;27;20532;-79
2023/01/16 04:43:38;;;;;;;3.35;3.05;;;;;;;0.61;100.00;94330.00;5123020;27;20713;-78
2023/01/16 04:46:05;;;;;;;5.00;2.55;;;;;;;0.69;100.00;94334.75;5124121;27;20672;-79
2023/01/16 04:48:32;;;;;;;10.82;4.18;;;;;;;0.78;100.00;94334.19;5123583;27;20201;-79
2023/01/16 04:50:59;;;;;;;4.97;3.20;;;;;;;0.52;100.00;94334.31;5113631;27;20194;-79
2023/01/16 04:53:26;;;;;;;9.70;4.72;;;;;;;0.59;100.00;94339.31;5121399;27;20229;-78
2023/01/16 04:55:56;;;;;;;8.02;2.72;;;;;;;0.76;100.00;94339.00;5121021;27;20197;-79
2023/01/16 04:58:24;;;;;;;3.60;2.35;;;;;;;0.72;100.00;94333.41;5120259;27;20305;-80
2023/01/16 05:00:51;;;;;;;11.35;3.75;;;;;;;0.61;100.00;94331.84;5122518;27;20198;-80
2023/01/16 05:03:18;;;;;;;7.88;2.78;;;;;;;0.56;100.00;94330.00;5121298;27;20201;-80
2023/01/16 05:05:45;;;;;;;6.65;3.08;;;;;;;0.55;100.00;94323.06;5122606;27;20203;-80
2023/01/16 05:08:18;;;;;;;8.70;4.45;;;;;;;0.50;100.00;94325.78;5123813;27;20200;-85
2023/01/16 05:10:45;;;;;;;14.73;4.07;;;;;;;0.43;100.00;94325.25;5122868;27;20186;-79
2023/01/16 05:13:13;;;;;;;10.38;3.53;;;;;;;0.29;100.00;94329.56;5123753;27;20217;-80
2023/01/16 05:15:40;;;;;;;5.85;2.47;;;;;;;0.21;100.00;94327.47;5122646;27;20189;-80
2023/01/16 05:18:06;;;;;;;5.03;3.28;;;;;;;0.23;100.00;94328.00;5123525;27;20249;-79
2023/01/16 05:20:33;;;;;;;7.80;3.97;;;;;;;0.23;100.00;94320.81;5121026;27;20481;-79
2023/01/16 05:23:00;;;;;;;6.80;3.05;;;;;;;0.25;100.00;94308.03;5122570;27;20190;-79
2023/01/16 05:25:27;;;;;;;6.50;3.08;;;;;;;0.28;100.00;94306.66;5121278;27;20242;-79
2023/01/16 05:27:53;;;;;;;8.80;3.83;;;;;;;0.26;100.00;94308.81;5122930;27;20251;-79
2023/01/16 05:30:22;;;;;;;8.18;3.10;;;;;;;0.29;100.00;94308.25;5113940;28;20221;-78
2023/01/16 05:32:49;;;;;;;8.32;3.47;;;;;;;0.28;100.00;94314.66;5123944;27;20201;-79
2023/01/16 05:35:16;;;;;;;4.53;2.72;;;;;;;0.28;100.00;94301.31;5119650;27;20233;-80
2023/01/16 05:37:43;;;;;;;8.02;3.08;;;;;;;0.37;100.00;94291.72;5128248;27;20205;-80
2023/01/16 05:40:11;;;;;;;4.80;3.20;;;;;;;0.39;100.00;94284.25;5145296;27;20197;-79
2023/01/16 05:42:38;;;;;;;6.68;3.60;;;;;;;0.46;100.00;94287.41;5124675;27;20205;-80
2023/01/16 05:45:06;;;;;;;5.30;3.47;;;;;;;0.49;100.00;94286.09;5136959;27;20337;-79
2023/01/16 05:47:34;;;;;;;6.40;2.50;;;;;;;0.57;100.00;94283.63;5124997;27;20609;-80
2023/01/16 05:50:01;;;;;;;5.32;2.75;;;;;;;0.33;100.00;94288.00;5118687;27;20201;-79
2023/01/16 05:52:28;;;;;;;6.85;3.50;;;;;;;0.26;100.00;94298.97;5132957;27;20682;-79
2023/01/16 05:54:55;;;;;;;11.02;6.00;;;;;;;0.34;100.00;94300.25;5133754;27;20277;-79
2023/01/16 05:57:24;;;;;;;8.73;3.40;;;;;;;0.29;100.00;94292.28;5126730;27;20606;-79
2023/01/16 05:59:51;;;;;;;9.73;3.67;;;;;;;0.46;100.00;94298.06;5127051;27;20213;-79
2023/01/16 06:02:18;;;;;;;7.50;4.28;;;;;;;0.57;100.00;94291.63;5112252;28;20205;-79
2023/01/16 06:04:46;;;;;;;14.05;5.15;;;;;;;0.69;100.00;94289.44;5132608;27;20240;-79
2023/01/16 06:07:13;;;;;;;9.35;3.97;;;;;;;0.63;100.00;94282.56;5119261;27;20266;-79
2023/01/16 06:09:40;;;;;;;10.82;4.47;;;;;;;0.52;100.00;94296.19;5118979;27;20201;-79
2023/01/16 06:12:08;;;;;;;10.90;4.30;;;;;;;0.60;100.00;94282.31;5118962;27;20254;-79
2023/01/16 06:14:35;;;;;;;9.32;4.15;;;;;;;0.83;100.00;94275.50;5124360;27;20229;-79
2023/01/16 06:17:02;;;;;;;13.45;5.10;;;;;;;0.97;100.00;94268.50;5125710;27;20201;-78
2023/01/16 06:19:28;;;;;;;5.65;3.33;;;;;;;1.16;100.00;94264.09;5119774;27;20204;-79
2023/01/16 06:21:56;;;;;;;11.80;3.97;;;;;;;1.22;100.00;94267.56;5118159;27;20303;-78
2023/01/16 06:24:23;;;;;;;12.52;4.50;;;;;;;0.96;100.00;94277.56;5132378;27;20205;-78
2023/01/16 06:26:50;;;;;;;9.27;3.70;;;;;;;0.96;100.00;94286.34;5119031;27;20198;-78
2023/01/16 06:29:17;;;;;;;10.82;4.72;;;;;;;1.11;100.00;94287.34;5126408;27;20196;-77
2023/01/16 06:31:43;;;;;;;11.65;6.13;;;;;;;1.44;100.00;94275.91;5121666;27;20220;-78
2023/01/16 06:34:10;;;;;;;6.53;3.83;;;;;;;1.52;100.00;94282.50;5119619;27;20228;-78
2023/01/16 06:36:37;;;;;;;7.65;5.47;;;;;;;1.60;100.00;94284.59;5118289;27;20258;-79
2023/01/16 06:39:05;;;;;;;11.60;4.15;;;;;;;1.88;100.00;94286.47;5124057;27;20197;-79
2023/01/16 06:41:32;;;;;;;8.80;5.20;;;;;;;1.83;99.26;94294.53;5122699;27;20193;-79
2023/01/16 06:43:59;;;;;;;12.52;6.60;;;;;;;1.90;99.32;94295.00;5123005;27;20207;-79
2023/01/16 06:46:26;;;;;;;10.27;5.72;;;;;;;1.89;99.17;94288.06;5117737;27;20289;-79
2023/01/16 06:48:53;;;;;;;21.38;6.90;;;;;;;2.03;99.18;94288.22;5125454;27;20602;-79
2023/01/16 06:51:20;;;;;;;7.88;4.90;;;;;;;1.77;98.73;94279.66;5131454;27;20261;-79
2023/01/16 06:53:46;;;;;;;14.30;5.78;;;;;;;1.59;99.24;94266.97;5123540;27;20743;-79
2023/01/16 06:56:15;;;;;;;8.45;4.70;;;;;;;1.40;100.00;94262.31;5124346;27;20830;-80
2023/01/16 06:58:41;;;;;;;16.92;5.80;;;;;;;1.68;100.00;94274.09;5118901;27;20285;-80
2023/01/16 07:01:08;;;;;;;18.05;7.07;;;;;;;1.71;99.79;94272.75;5128200;27;20585;-79
2023/01/16 07:03:35;;;;;;;14.88;4.68;;;;;;;1.70;100.00;94276.50;5124114;27;20663;-79
2023/01/16 07:06:02;;;;;;;17.17;5.95;;;;;;;1.88;100.00;94270.47;5118185;27;20709;-78
2023/01/16 07:08:29;;;;;;;7.85;4.05;;;;;;;2.19;100.00;94275.50;5121374;27;20205;-79
2023/01/16 07:10:59;;;;;;;13.57;6.18;;;;;;;2.19;100.00;94278.94;5113848;27;20272;-78
2023/01/16 07:13:28;;;;;;;15.98;5.63;;;;;;;2.06;100.00;94277.72;5131262;27;20197;-77
2023/01/16 07:24:15;;;;;;;9.40;3.22;;;;;;;2.50;97.50;94261.47;5130827;27;20207;-75
2023/01/16 07:26:45;;;;;;;15.60;6.28;;;;;;;2.20;98.40;94267.16;5130607;27;20604;-75
2023/01/16 07:29:14;;;;;;;12.05;5.15;;;;;;;2.54;98.88;94269.72;5124751;27;20198;-78
2023/01/16 07:31:41;;;;;;;14.65;4.72;;;;;;;2.62;97.91;94269.09;5125649;27;20208;-80
2023/01/16 07:34:08;;;;;;;11.55;5.15;;;;;;;2.78;97.41;94259.78;5124986;27;20225;-79
2023/01/16 07:36:35;;;;;;;11.52;6.15;;;;;;;2.96;95.65;94257.44;5124161;27;20201;-79
2023/01/16 07:39:10;;;;;;;14.07;5.82;;;;;;;3.15;95.18;94255.53;5119076;27;20209;-79
2023/01/16 07:41:37;;;;;;;12.15;5.10;;;;;;;3.12;95.22;94250.78;5117596;27;20196;-79
2023/01/16 07:44:04;;;;;;;8.48;4.60;;;;;;;3.04;93.76;94248.75;5131257;27;20201;-79
2023/01/16 07:46:32;;;;;;;10.82;6.25;;;;;;;2.87;95.44;94240.44;5128586;27;20211;-79
2023/01/16 07:48:59;;;;;;;11.45;6.30;;;;;;;2.99;96.41;94246.94;5121135;28;20245;-79
2023/01/16 07:51:26;;;;;;;15.80;5.60;;;;;;;2.99;95.21;94240.81;5130721;27;20257;-79
2023/01/16 07:53:53;;;;;;;20.52;7.60;;;;;;;2.79;95.50;94241.88;5120440;28;20198;-80
2023/01/16 07:56:19;;;;;;;12.50;6.85;;;;;;;3.11;94.54;94223.22;5128028;28;20200;-79
2023/01/16 07:58:47;;;;;;;7.15;4.68;;;;;;;3.04;94.23;94222.00;5121079;28;20220;-78
2023/01/16 08:01:14;;;;;;;17.60;8.07;;;;;;;2.91;95.27;94222.72;5117692;28;20200;-79
2023/01/16 08:03:42;;;;;;;15.55;6.32;;;;;;;2.58;95.57;94216.50;5120155;28;20250;-78
2023/01/16 08:06:09;;;;;;;18.02;7.32;;;;;;;3.01;95.53;94217.22;5124461;28;20664;-80
2023/01/16 08:08:35;;;;;;;22.30;8.23;;;;;;;3.12;94.12;94197.28;5122130;28;20723;-80
2023/01/16 08:11:35;;;;;;;18.08;7.82;;;;;;;3.38;95.41;94219.88;5116910;28;20201;-80
2023/01/16 08:13:51;;;;;;;10.20;4.85;;;;;;;3.71;97.55;94203.75;5129443;28;20268;-80
2023/01/16 08:16:18;;;;;;;7.72;6.70;;;;;;;3.07;94.43;94210.72;5117989;28;20204;-77
2023/01/16 08:18:48;;;;;;;14.27;5.80;;;;;;;2.89;96.97;94220.31;5117044;28;20247;-78
2023/01/16 08:21:16;;;;;;;22.65;6.68;;;;;;;2.68;96.96;94235.88;5120461;27;20229;-78
2023/01/16 08:23:43;;;;;;;23.65;8.60;;;;;;;2.73;97.95;94243.81;5123949;28;20288;-78
2023/01/16 08:26:11;;;;;;;10.95;6.65;;;;;;;2.83;97.11;94238.34;5109072;28;20198;-78
2023/01/16 08:28:38;;;;;;;14.18;6.53;;;;;;;2.94;96.73;94235.50;5123634;28;20209;-78
2023/01/16 08:31:07;;;;;;;26.23;8.05;;;;;;;2.75;97.62;94225.59;5110178;28;20279;-79
2023/01/16 08:33:35;;;;;;;15.65;7.07;;;;;;;3.32;96.75;94234.41;5124363;28;20470;-79
2023/01/16 08:36:03;;;;;;;25.00;9.57;;;;;;;3.56;94.67;94213.66;5121210;28;20227;-80
2023/01/16 08:38:30;;;;;;;13.05;7.45;;;;;;;3.57;94.25;94209.88;5117294;28;20193;-80
2023/01/16 08:40:57;;;;;;;32.83;10.82;;;;;;;3.79;92.81;94203.09;5119508;28;20684;-78
2023/01/16 08:51:46;;;;;;;22.88;8.10;;;;;;;4.36;91.31;94187.56;5129930;28;20200;-79
2023/01/16 08:54:13;;;;;;;25.63;9.80;;;;;;;4.63;90.99;94176.78;5116901;28;20225;-79
2023/01/16 08:56:42;;;;;;;32.72;13.13;;;;;;;4.51;89.78;94179.19;5124978;27;20201;-79
2023/01/16 08:59:09;;;;;;;27.45;10.20;;;;;;;4.43;89.19;94193.28;5116836;28;20212;-79
2023/01/16 09:01:37;;;;;;;35.33;12.70;;;;;;;4.34;89.82;94192.41;5123738;28;20288;-79
2023/01/16 09:04:03;;;;;;;24.42;9.25;;;;;;;4.12;88.38;94177.81;5124874;27;20266;-78
2023/01/16 09:06:30;;;;;;;29.65;10.43;;;;;;;3.84;92.10;94176.22;5119874;27;20249;-79
2023/01/16 09:08:58;;;;;;;23.98;10.20;;;;;;;4.16;90.88;94167.28;5120122;27;20657;-79
2023/01/16 09:14:09;;;;;;;26.63;10.25;;;;;;;4.53;89.47;94155.53;5120174;27;20200;-79
2023/01/16 09:16:47;;;;;;;25.23;9.32;;;;;;;4.72;88.40;94164.25;5131139;27;20231;-80
2023/01/16 09:19:14;;;;;;;21.83;9.63;;;;;;;4.64;88.04;94162.28;5136232;27;20278;-80
2023/01/16 09:21:41;;;;;;;19.98;9.55;;;;;;;4.86;88.03;94148.91;5127387;27;20307;-79
2023/01/16 09:24:09;;;;;;;25.88;10.27;;;;;;;5.09;87.03;94151.59;5116360;27;20208;-79
2023/01/16 09:26:36;;;;;;;23.38;11.13;;;;;;;5.06;86.82;94146.84;5113273;28;20730;-79
2023/01/16 09:29:03;;;;;;;16.60;6.70;;;;;;;5.30;84.21;94136.59;5111763;28;20213;-79
2023/01/16 09:31:30;;;;;;;31.67;10.13;;;;;;;5.11;84.32;94127.94;5124593;27;20308;-79
2023/01/16 09:33:56;;;;;;;26.15;10.95;;;;;;;5.47;84.14;94127.81;5120287;27;20740;-78
2023/01/16 09:36:25;;;;;;;22.10;9.13;;;;;;;5.66;82.42;94113.09;5123335;27;20225;-80
2023/01/16 09:38:53;;;;;;;14.98;7.40;;;;;;;5.75;81.93;94113.13;5126528;27;20664;-78
2023/01/16 09:44:04;;;;;;;18.50;9.02;;;;;;;5.68;81.90;94132.38;5123430;27;20188;-80
2023/01/16 09:46:34;;;;;;;25.90;8.70;;;;;;;5.97;81.84;94126.53;5121555;27;20201;-79
2023/01/16 09:49:05;;;;;;;20.02;8.18;;;;;;;6.09;81.01;94107.13;5134526;27;20234;-79
2023/01/16 09:51:36;;;;;;;17.35;8.98;;;;;;;6.08;81.05;94113.59;5130927;27;20186;-80
2023/01/16 09:59:48;;;;;;;17.85;7.82;;;;;;;6.04;79.36;94096.50;5119389;27;20192;-79
2023/01/16 10:02:21;;;;;;;15.30;6.95;;;;;;;5.66;79.71;94086.22;5115319;27;20189;-79
2023/01/16 10:04:48;;;;;;;20.35;7.45;;;;;;;5.86;80.97;94092.16;5118806;27;20283;-79
2023/01/16 10:07:42;;;;;;;35.58;15.93;;;;;;;5.96;81.15;94086.53;5119091;27;21003;-79
2023/01/16 10:10:29;;;;;;;14.98;7.07;;;;;;;6.39;80.19;94082.03;5122641;27;20193;-79
2023/01/16 10:13:11;;;;;;;18.35;8.18;;;;;;;6.53;78.82;94064.97;5132683;27;20209;-79
2023/01/16 10:15:46;;;;;;;16.88;7.18;;;;;;;6.23;78.83;94072.03;5118424;27;20619;-80
2023/01/16 10:18:26;;;;;;;20.58;9.10;;;;;;;6.36;79.37;94066.53;5122892;27;20246;-79
2023/01/16 10:21:11;;;;;;;18.42;8.48;;;;;;;6.62;78.47;94057.69;5117637;27;20313;-80
2023/01/16 10:23:53;;;;;;;12.73;7.85;;;;;;;6.60;78.22;94055.31;5132245;27;20242;-79
2023/01/16 10:26:28;;;;;;;15.50;7.43;;;;;;;6.68;77.13;94024.13;5112262;28;20186;-79
2023/01/16 10:29:04;;;;;;;17.88;9.02;;;;;;;6.26;78.32;94028.41;5125557;27;20898;-80
2023/01/16 10:31:37;;;;;;;19.33;8.90;;;;;;;6.51;77.71;94018.75;5125831;27;20193;-79
2023/01/16 10:34:12;;;;;;;17.77;8.15;;;;;;;6.97;77.46;94016.16;5133242;27;20197;-79
2023/01/16 10:36:44;;;;;;;28.23;12.30;;;;;;;7.09;75.77;93992.09;5119654;27;20818;-79
2023/01/16 10:39:13;;;;;;;37.40;17.55;;;;;;;6.46;76.94;94005.44;5132574;27;20196;-79
2023/01/16 10:50:10;;;;;;;11.88;6.75;;;;;;;6.79;76.42;93979.63;5119257;27;20314;-79
2023/01/16 10:52:37;;;;;;;23.73;10.30;;;;;;;6.25;78.43;93984.56;5131715;27;20201;-81
2023/01/16 10:55:06;;;;;;;20.80;9.52;;;;;;;6.31;77.46;93975.22;5117889;27;20251;-78
2023/01/16 10:57:33;;;;;;;25.65;9.70;;;;;;;6.78;76.52;93967.28;5126796;27;20777;-80
2023/01/16 11:00:06;;;;;;;13.45;7.35;;;;;;;6.98;76.64;93958.50;5118283;27;20620;-80
2023/01/16 11:02:35;;;;;;;20.67;9.07;;;;;;;6.96;75.90;93939.22;5117575;27;20709;-80
2023/01/16 11:05:02;;;;;;;19.98;8.25;;;;;;;6.76;76.75;93939.88;5123366;27;20202;-79
2023/01/16 11:07:31;;;;;;;15.73;7.88;;;;;;;7.19;75.06;93937.06;5124916;27;20284;-79
2023/01/16 11:10:01;;;;;;;16.70;8.07;;;;;;;7.37;74.90;93932.41;5111219;28;20567;-78
2023/01/16 11:20:49;;;;;;;19.02;8.55;;;;;;;6.90;76.39;93918.94;5125724;27;20248;-79
2023/01/16 11:23:20;;;;;;;13.55;7.35;;;;;;;6.40;77.22;93919.56;5122701;27;20693;-79
2023/01/16 11:25:49;;;;;;;18.05;7.63;;;;;;;6.38;78.03;93924.44;5117357;27;20202;-78
2023/01/16 11:28:21;;;;;;;26.23;9.18;;;;;;;6.69;77.73;93918.06;5117417;27;20221;-79
2023/01/16 11:30:53;;;;;;;18.98;8.85;;;;;;;7.00;76.17;93915.13;5130506;27;20209;-80
2023/01/16 11:33:23;;;;;;;18.55;8.27;;;;;;;7.36;74.74;93920.84;5131278;27;20181;-79
2023/01/16 11:35:56;;;;;;;20.70;9.38;;;;;;;7.10;73.97;93896.72;5118718;27;20213;-79
2023/01/16 11:38:24;;;;;;;14.55;6.50;;;;;;;6.81;76.21;93896.66;5117490;27;20194;-78
2023/01/16 11:40:53;;;;;;;7.32;4.70;;;;;;;6.55;76.19;93902.13;5130771;27;20250;-78
2023/01/16 11:46:26;;;;;;;13.63;6.72;;;;;;;6.87;74.07;93898.06;5122156;27;20256;-79
2023/01/16 11:48:55;;;;;;;17.02;6.57;;;;;;;6.89;74.02;93895.84;5118323;27;20644;-78
2023/01/16 11:51:27;;;;;;;17.73;7.60;;;;;;;6.85;74.57;93886.81;5116864;28;20727;-79
2023/01/16 11:53:56;;;;;;;8.70;4.20;;;;;;;6.95;74.18;93866.84;5120355;28;20543;-77
2023/01/16 11:56:50;;;;;;;8.88;4.68;;;;;;;6.86;75.00;93868.75;5114674;28;20283;-78
2023/01/16 11:59:41;;;;;;;12.80;5.55;;;;;;;6.60;75.35;93866.16;5123001;28;20201;-78
2023/01/16 12:02:29;;;;;;;14.95;6.40;;;;;;;6.62;76.02;93855.88;5122045;28;20193;-79
2023/01/16 12:08:20;;;;;;;10.45;4.63;;;;;;;6.46;75.73;93865.56;5111316;28;20192;-79
2023/01/16 12:10:53;;;;;;;15.38;7.53;;;;;;;6.70;74.70;93853.16;5123571;28;20230;-78
2023/01/16 12:16:21;;;;;;;11.02;5.10;;;;;;;6.31;74.96;93853.41;5117529;28;20220;-79
2023/01/16 12:19:01;;;;;;;15.60;5.90;;;;;;;6.33;75.71;93845.81;5116318;28;20660;-79
2023/01/16 12:21:35;;;;;;;18.10;7.07;;;;;;;6.08;76.55;93844.75;5121778;28;20228;-79
2023/01/16 12:24:30;;;;;;;13.48;6.43;;;;;;;6.24;76.72;93837.78;5126964;28;20246;-80
2023/01/16 12:27:10;;;;;;;18.05;6.35;;;;;;;6.13;77.51;93825.78;5127261;28;20692;-79
2023/01/16 12:29:51;;;;;;;9.70;5.07;;;;;;;5.98;77.96;93824.38;5119518;27;20225;-79
2023/01/16 12:32:33;;;;;;;7.13;4.45;;;;;;;6.04;77.90;93822.28;5129576;28;20697;-78
2023/01/16 12:35:28;;;;;;;12.80;5.85;;;;;;;6.02;79.10;93803.00;5114577;28;20201;-79
2023/01/16 12:38:16;;;;;;;8.68;6.15;;;;;;;5.80;78.82;93816.59;5118639;27;20204;-79
2023/01/16 12:44:40;;;;;;;16.70;6.43;;;;;;;5.33;80.23;93819.13;5129190;27;20220;-81
2023/01/16 12:47:23;;;;;;;14.15;6.40;;;;;;;5.00;81.22;93821.44;5038088;28;20199;-76
2023/01/16 12:50:00;;;;;;;12.63;5.55;;;;;;;5.08;81.65;93811.81;5130194;27;20327;-79